Time;durP1;ratioP1;P1;durP2;ratioP2;P2;SDS_P1;SDS_P2;PMS_P1;PMS_P2;Temp;Humidity;BMP_temperature;BMP_pressure;BME280_temperature;BME280_humidity;BME280_pressure;Samples;Min_cycle;Max_cycle;Signal;HPM_P1;HPM_P2
2021/07/04 00:01:14;;;;;;;5.27;3.13;;;;;;;;;;5066364;28;20164;-66
2021/07/04 00:03:39;;;;;;;8.63;4.63;;;;;;;;;;5048439;28;20172;-67
2021/07/04 00:06:05;;;;;;;5.80;2.80;;;;;;;;;;5066518;28;20259;-67
2021/07/04 00:08:31;;;;;;;7.77;2.50;;;;;;;;;;5047225;28;20454;-68
2021/07/04 00:11:04;;;;;;;4.77;2.83;;;;;;;;;;5065095;28;20165;-69
2021/07/04 00:13:30;;;;;;;5.40;2.50;;;;;;;;;;5058959;28;20184;-69
2021/07/04 00:15:55;;;;;;;3.60;2.03;;;;;;;;;;5066801;28;20519;-73
2021/07/04 00:18:22;;;;;;;7.80;2.40;;;;;;;;;;5066040;28;20403;-72
2021/07/04 00:20:48;;;;;;;5.00;2.80;;;;;;;;;;5067152;28;20245;-69
2021/07/04 00:23:14;;;;;;;4.90;2.43;;;;;;;;;;5067156;28;20387;-68
2021/07/04 00:25:40;;;;;;;8.40;2.70;;;;;;;;;;5067407;28;20418;-68
2021/07/04 00:28:06;;;;;;;7.73;3.30;;;;;;;;;;5067021;28;20220;-69
2021/07/04 00:30:32;;;;;;;7.40;3.30;;;;;;;;;;5066878;28;20411;-71
2021/07/04 00:32:58;;;;;;;7.30;2.80;;;;;;;;;;5065364;28;20610;-70
2021/07/04 00:35:24;;;;;;;5.07;2.67;;;;;;;;;;5048181;28;20180;-68
2021/07/04 00:37:49;;;;;;;5.60;2.60;;;;;;;;;;5068874;28;20653;-67
2021/07/04 00:40:15;;;;;;;10.57;2.97;;;;;;;;;;5070765;28;20909;-68
2021/07/04 00:42:41;;;;;;;5.30;2.93;;;;;;;;;;5069689;28;20425;-73
2021/07/04 00:45:11;;;;;;;7.40;3.70;;;;;;;;;;5069678;28;20414;-67
2021/07/04 00:47:36;;;;;;;5.73;2.90;;;;;;;;;;5069499;28;20737;-73
2021/07/04 00:50:02;;;;;;;4.73;3.07;;;;;;;;;;5069311;28;20410;-68
2021/07/04 00:52:28;;;;;;;7.03;2.40;;;;;;;;;;5067932;28;20172;-69
2021/07/04 00:54:53;;;;;;;6.40;2.47;;;;;;;;;;5071278;28;20422;-69
2021/07/04 00:57:19;;;;;;;5.57;2.27;;;;;;;;;;5073161;28;20414;-69
2021/07/04 00:59:44;;;;;;;4.83;3.30;;;;;;;;;;5072688;28;20161;-72
2021/07/04 01:02:10;;;;;;;3.60;1.90;;;;;;;;;;5071164;28;20259;-73
2021/07/04 01:04:35;;;;;;;4.30;2.00;;;;;;;;;;5071526;28;20171;-72
2021/07/04 01:07:00;;;;;;;5.07;2.20;;;;;;;;;;5072482;28;20227;-70
2021/07/04 01:09:26;;;;;;;6.03;2.20;;;;;;;;;;5071968;28;20175;-74
2021/07/04 01:11:51;;;;;;;4.37;2.13;;;;;;;;;;5072584;28;20183;-73
2021/07/04 01:14:17;;;;;;;4.53;2.33;;;;;;;;;;5071619;28;20176;-71
2021/07/04 01:16:44;;;;;;;4.50;2.30;;;;;;;;;;5071398;28;20219;-72
2021/07/04 01:19:13;;;;;;;5.37;2.13;;;;;;;;;;5071533;28;20549;-73
2021/07/04 01:21:39;;;;;;;5.87;2.60;;;;;;;;;;5071774;28;20419;-72
2021/07/04 01:24:05;;;;;;;4.37;2.53;;;;;;;;;;5072239;28;20808;-71
2021/07/04 01:26:30;;;;;;;5.07;2.60;;;;;;;;;;5071670;28;20973;-71
2021/07/04 01:28:55;;;;;;;4.30;2.10;;;;;;;;;;5072032;28;20228;-73
2021/07/04 01:31:21;;;;;;;5.27;2.67;;;;;;;;;;5072893;28;20178;-68
2021/07/04 01:33:48;;;;;;;4.73;2.23;;;;;;;;;;5071990;28;20172;-68
2021/07/04 01:36:14;;;;;;;5.83;2.33;;;;;;;;;;5071873;28;20180;-73
2021/07/04 01:38:39;;;;;;;6.43;2.17;;;;;;;;;;5070947;28;20410;-70
2021/07/04 01:41:04;;;;;;;4.07;2.43;;;;;;;;;;5071077;28;20632;-71
2021/07/04 01:43:30;;;;;;;5.70;3.00;;;;;;;;;;5071453;28;20160;-72
2021/07/04 01:45:55;;;;;;;5.60;3.00;;;;;;;;;;5071907;28;20183;-73
2021/07/04 01:48:20;;;;;;;7.27;3.27;;;;;;;;;;5067590;28;20325;-71
2021/07/04 01:50:47;;;;;;;5.10;2.73;;;;;;;;;;5071176;28;20166;-67
2021/07/04 01:53:13;;;;;;;5.43;2.53;;;;;;;;;;5071887;28;20167;-72
2021/07/04 01:55:39;;;;;;;4.80;2.63;;;;;;;;;;5072231;28;20932;-68
2021/07/04 01:58:04;;;;;;;4.90;2.67;;;;;;;;;;5071896;28;20414;-74
2021/07/04 02:00:30;;;;;;;4.87;2.70;;;;;;;;;;5071636;28;20160;-71
2021/07/04 02:02:56;;;;;;;6.43;2.77;;;;;;;;;;5071676;28;20164;-68
2021/07/04 02:05:22;;;;;;;11.90;3.23;;;;;;;;;;5071598;28;20425;-71
2021/07/04 02:07:47;;;;;;;6.93;2.63;;;;;;;;;;5070899;28;20458;-73
2021/07/04 02:10:18;;;;;;;6.23;3.13;;;;;;;;;;5071429;28;20156;-69
2021/07/04 02:12:43;;;;;;;5.40;3.57;;;;;;;;;;5071427;28;20554;-76
2021/07/04 02:15:12;;;;;;;6.00;3.20;;;;;;;;;;5071651;28;20462;-73
2021/07/04 02:17:38;;;;;;;9.23;3.97;;;;;;;;;;5071490;28;20265;-69
2021/07/04 02:20:22;;;;;;;6.23;4.07;;;;;;;;;;5070929;28;20903;-73
2021/07/04 02:22:47;;;;;;;5.73;3.27;;;;;;;;;;5071485;28;20160;-75
2021/07/04 02:25:12;;;;;;;9.40;3.60;;;;;;;;;;5071925;28;20456;-73
2021/07/04 02:27:38;;;;;;;5.97;3.50;;;;;;;;;;5070920;28;20219;-72
2021/07/04 02:30:04;;;;;;;7.50;3.40;;;;;;;;;;5070712;28;20168;-70
2021/07/04 02:32:29;;;;;;;6.13;3.97;;;;;;;;;;5071582;28;20862;-72
2021/07/04 02:34:55;;;;;;;9.90;3.57;;;;;;;;;;5070453;28;20798;-74
2021/07/04 02:37:20;;;;;;;6.60;4.07;;;;;;;;;;5071768;28;20164;-74
2021/07/04 02:39:45;;;;;;;8.60;3.33;;;;;;;;;;5070651;28;20245;-74
2021/07/04 02:42:11;;;;;;;5.80;3.07;;;;;;;;;;5070977;28;20164;-71
2021/07/04 02:44:36;;;;;;;7.00;3.47;;;;;;;;;;5070331;28;20682;-72
2021/07/04 02:47:01;;;;;;;9.63;3.80;;;;;;;;;;5052910;28;20168;-75
2021/07/04 02:49:26;;;;;;;8.00;3.47;;;;;;;;;;5071157;28;20202;-74
2021/07/04 02:51:52;;;;;;;5.03;3.27;;;;;;;;;;5070648;28;20264;-68
2021/07/04 02:54:17;;;;;;;4.77;3.00;;;;;;;;;;5071322;28;20525;-71
2021/07/04 02:56:42;;;;;;;4.90;2.90;;;;;;;;;;5071396;28;20179;-72
2021/07/04 02:59:08;;;;;;;4.93;2.60;;;;;;;;;;5070597;28;20172;-69
2021/07/04 03:01:33;;;;;;;4.17;2.70;;;;;;;;;;5070334;28;20182;-74
2021/07/04 03:03:58;;;;;;;6.43;3.33;;;;;;;;;;5070752;28;20691;-70
2021/07/04 03:06:24;;;;;;;6.83;3.33;;;;;;;;;;5052389;28;20184;-69
2021/07/04 03:08:49;;;;;;;4.60;2.73;;;;;;;;;;5070616;28;20200;-71
2021/07/04 03:11:14;;;;;;;4.70;3.17;;;;;;;;;;5071061;28;20207;-68
2021/07/04 03:13:40;;;;;;;7.20;2.90;;;;;;;;;;5069074;28;20248;-72
2021/07/04 03:16:05;;;;;;;5.97;3.17;;;;;;;;;;5070564;28;20227;-70
2021/07/04 03:18:30;;;;;;;3.90;2.47;;;;;;;;;;5070276;28;20168;-72
2021/07/04 03:20:56;;;;;;;4.67;2.70;;;;;;;;;;5070619;28;20565;-68
2021/07/04 03:23:21;;;;;;;4.97;2.50;;;;;;;;;;5070023;28;20214;-76
2021/07/04 03:25:46;;;;;;;5.93;2.70;;;;;;;;;;5069976;28;20180;-72
2021/07/04 03:28:12;;;;;;;4.10;2.80;;;;;;;;;;5070448;28;20574;-70
2021/07/04 03:30:37;;;;;;;4.67;2.70;;;;;;;;;;5069854;28;20890;-68
2021/07/04 03:33:02;;;;;;;5.87;3.00;;;;;;;;;;5070642;28;20200;-71
2021/07/04 03:35:28;;;;;;;4.40;2.87;;;;;;;;;;5070570;28;20194;-70
2021/07/04 03:37:54;;;;;;;7.40;2.80;;;;;;;;;;5069284;28;20168;-70
2021/07/04 03:40:20;;;;;;;8.73;3.50;;;;;;;;;;5069998;28;20160;-70
2021/07/04 03:42:46;;;;;;;7.60;3.50;;;;;;;;;;5069259;28;20800;-66
2021/07/04 03:45:11;;;;;;;5.00;3.33;;;;;;;;;;5070506;28;20643;-74
2021/07/04 03:47:37;;;;;;;8.53;3.67;;;;;;;;;;5069737;28;20445;-69
2021/07/04 03:50:05;;;;;;;4.83;3.27;;;;;;;;;;5070341;28;20196;-73
2021/07/04 03:52:30;;;;;;;11.43;4.30;;;;;;;;;;5070079;28;20252;-71
2021/07/04 03:54:55;;;;;;;6.33;3.73;;;;;;;;;;5069025;28;20415;-72
2021/07/04 03:57:24;;;;;;;8.27;3.80;;;;;;;;;;5069975;28;20160;-70
2021/07/04 04:00:08;;;;;;;4.70;3.37;;;;;;;;;;5069805;28;20255;-69
2021/07/04 04:02:33;;;;;;;5.70;3.23;;;;;;;;;;5070405;28;20422;-69
2021/07/04 04:04:58;;;;;;;10.63;3.40;;;;;;;;;;5069791;28;20457;-72
2021/07/04 04:07:24;;;;;;;9.90;3.37;;;;;;;;;;5070436;28;20192;-72
2021/07/04 04:09:51;;;;;;;6.77;4.10;;;;;;;;;;5069714;28;20915;-71
2021/07/04 04:12:17;;;;;;;5.53;3.43;;;;;;;;;;5073124;28;20191;-69
2021/07/04 04:14:42;;;;;;;6.07;3.27;;;;;;;;;;5073012;28;20482;-72
2021/07/04 04:17:07;;;;;;;6.30;3.70;;;;;;;;;;5073800;28;20176;-75
2021/07/04 04:19:33;;;;;;;8.00;4.27;;;;;;;;;;5073824;28;20180;-74
2021/07/04 04:21:59;;;;;;;8.57;2.77;;;;;;;;;;5073663;28;20161;-71
2021/07/04 04:24:24;;;;;;;5.77;3.87;;;;;;;;;;5073250;28;20263;-74
2021/07/04 04:26:49;;;;;;;5.47;3.40;;;;;;;;;;5073631;28;20233;-70
2021/07/04 04:29:15;;;;;;;5.20;3.30;;;;;;;;;;5073713;28;20176;-69
2021/07/04 04:31:41;;;;;;;6.43;3.27;;;;;;;;;;5072979;28;20203;-71
2021/07/04 04:34:06;;;;;;;6.30;3.43;;;;;;;;;;5073426;28;20414;-71
2021/07/04 04:36:31;;;;;;;5.63;3.53;;;;;;;;;;5073809;28;20160;-73
2021/07/04 04:38:57;;;;;;;6.60;3.73;;;;;;;;;;5073045;28;20180;-71
2021/07/04 04:41:22;;;;;;;7.40;3.50;;;;;;;;;;5073292;28;20271;-74
2021/07/04 04:43:48;;;;;;;7.63;3.00;;;;;;;;;;5072825;28;20180;-73
2021/07/04 04:46:13;;;;;;;4.30;3.07;;;;;;;;;;5073743;28;20164;-74
2021/07/04 04:48:38;;;;;;;4.80;3.13;;;;;;;;;;5072907;28;20191;-71
2021/07/04 04:51:05;;;;;;;7.43;3.47;;;;;;;;;;5073097;28;20160;-74
2021/07/04 04:53:30;;;;;;;6.63;3.77;;;;;;;;;;5072315;28;20160;-73
2021/07/04 04:55:55;;;;;;;5.93;3.63;;;;;;;;;;5072628;28;20912;-74
2021/07/04 04:58:21;;;;;;;6.23;3.50;;;;;;;;;;5072638;28;20148;-74
2021/07/04 05:00:46;;;;;;;8.87;3.80;;;;;;;;;;5072815;28;20164;-71
2021/07/04 05:03:11;;;;;;;5.20;3.63;;;;;;;;;;5071758;28;20179;-71
2021/07/04 05:05:37;;;;;;;7.10;4.33;;;;;;;;;;5073010;28;20160;-71
2021/07/04 05:08:02;;;;;;;5.40;3.83;;;;;;;;;;5072903;28;20192;-72
2021/07/04 05:10:28;;;;;;;6.30;4.37;;;;;;;;;;5071515;28;20172;-70
2021/07/04 05:12:53;;;;;;;10.83;4.40;;;;;;;;;;5054647;28;20172;-69
2021/07/04 05:15:18;;;;;;;5.40;3.83;;;;;;;;;;5065161;28;20616;-67
2021/07/04 05:17:44;;;;;;;9.07;4.63;;;;;;;;;;5045601;28;20165;-73
2021/07/04 05:20:09;;;;;;;7.67;4.67;;;;;;;;;;5053107;28;20212;-66
2021/07/04 05:22:35;;;;;;;6.93;4.20;;;;;;;;;;5052311;28;20570;-73
2021/07/04 05:25:01;;;;;;;9.37;4.60;;;;;;;;;;5052697;28;20196;-72
2021/07/04 05:27:26;;;;;;;5.97;4.57;;;;;;;;;;5052407;28;20197;-71
2021/07/04 05:29:51;;;;;;;7.00;4.30;;;;;;;;;;5051965;28;20410;-70
2021/07/04 05:32:17;;;;;;;6.90;4.27;;;;;;;;;;5052090;28;20161;-70
2021/07/04 05:34:42;;;;;;;9.57;4.13;;;;;;;;;;5045991;28;20169;-68
2021/07/04 05:37:07;;;;;;;5.17;4.13;;;;;;;;;;5047780;28;20834;-68
2021/07/04 05:39:33;;;;;;;7.03;4.47;;;;;;;;;;5049944;28;20165;-73
2021/07/04 05:41:58;;;;;;;6.00;4.37;;;;;;;;;;5044495;28;20204;-72
2021/07/04 05:44:23;;;;;;;9.53;4.70;;;;;;;;;;5047526;28;20165;-70
2021/07/04 05:46:49;;;;;;;5.23;3.70;;;;;;;;;;5048716;28;20165;-71
2021/07/04 05:49:15;;;;;;;9.70;4.53;;;;;;;;;;5050800;28;20200;-70
2021/07/04 05:51:40;;;;;;;6.50;3.90;;;;;;;;;;5046404;28;20170;-73
2021/07/04 05:54:06;;;;;;;10.03;4.30;;;;;;;;;;5050543;28;20933;-71
2021/07/04 05:56:33;;;;;;;6.00;4.10;;;;;;;;;;5049944;28;20246;-71
2021/07/04 05:58:59;;;;;;;13.53;4.80;;;;;;;;;;5050966;28;20830;-73
2021/07/04 06:01:24;;;;;;;5.93;4.20;;;;;;;;;;5050934;28;20929;-67
2021/07/04 06:03:49;;;;;;;9.17;4.40;;;;;;;;;;5046021;28;20267;-67
2021/07/04 06:06:15;;;;;;;8.93;4.20;;;;;;;;;;5050827;28;20173;-71
2021/07/04 06:08:40;;;;;;;6.80;4.90;;;;;;;;;;5047920;28;20713;-71
2021/07/04 06:11:05;;;;;;;7.27;5.67;;;;;;;;;;5045210;28;20248;-67
2021/07/04 06:13:31;;;;;;;10.33;5.63;;;;;;;;;;5034382;28;20601;-74
2021/07/04 06:15:56;;;;;;;6.70;4.90;;;;;;;;;;5050610;28;20839;-74
2021/07/04 06:18:22;;;;;;;8.20;5.13;;;;;;;;;;5042087;28;20231;-72
2021/07/04 06:20:47;;;;;;;7.50;4.40;;;;;;;;;;5037122;28;20212;-75
2021/07/04 06:23:12;;;;;;;9.07;4.77;;;;;;;;;;5038183;28;20172;-69
2021/07/04 06:25:37;;;;;;;12.53;5.90;;;;;;;;;;5050830;28;20319;-70
2021/07/04 06:28:03;;;;;;;9.43;5.00;;;;;;;;;;5049771;28;20658;-69
2021/07/04 06:30:29;;;;;;;5.37;4.03;;;;;;;;;;5050428;28;20664;-73
2021/07/04 06:32:54;;;;;;;9.07;4.80;;;;;;;;;;5047871;28;21008;-73
2021/07/04 06:35:20;;;;;;;6.60;4.87;;;;;;;;;;5047114;28;20157;-69
2021/07/04 06:37:45;;;;;;;8.73;4.97;;;;;;;;;;5049904;28;20631;-68
2021/07/04 06:40:12;;;;;;;7.90;5.27;;;;;;;;;;5049049;28;20153;-70
2021/07/04 06:42:37;;;;;;;7.43;4.47;;;;;;;;;;5048952;28;20165;-74
2021/07/04 06:45:04;;;;;;;7.20;4.37;;;;;;;;;;5049952;28;20398;-74
2021/07/04 06:47:29;;;;;;;6.80;4.20;;;;;;;;;;5049125;28;20283;-69
2021/07/04 06:49:54;;;;;;;4.97;3.93;;;;;;;;;;5048949;28;20502;-68
2021/07/04 06:52:21;;;;;;;5.57;3.33;;;;;;;;;;5049856;28;20203;-74
2021/07/04 06:54:46;;;;;;;4.47;2.70;;;;;;;;;;5049409;28;20636;-75
2021/07/04 06:57:29;;;;;;;3.97;2.10;;;;;;;;;;5041372;28;20422;-73
2021/07/04 07:00:04;;;;;;;4.57;2.13;;;;;;;;;;5050240;28;20230;-71
2021/07/04 07:02:29;;;;;;;4.73;2.17;;;;;;;;;;5050728;28;20437;-74
2021/07/04 07:04:54;;;;;;;5.43;2.57;;;;;;;;;;5053178;28;20490;-72
2021/07/04 07:07:20;;;;;;;5.40;3.30;;;;;;;;;;5051019;28;20188;-73
2021/07/04 07:09:45;;;;;;;9.37;4.10;;;;;;;;;;5050470;28;20157;-70
2021/07/04 07:12:11;;;;;;;9.20;4.10;;;;;;;;;;5050521;28;20192;-71
2021/07/04 07:14:36;;;;;;;6.60;3.40;;;;;;;;;;5051510;28;20157;-69
2021/07/04 07:17:02;;;;;;;4.63;3.40;;;;;;;;;;5069599;28;20246;-69
2021/07/04 07:19:27;;;;;;;5.90;3.90;;;;;;;;;;5069589;28;20171;-69
2021/07/04 07:21:52;;;;;;;5.00;3.70;;;;;;;;;;5067106;28;20176;-70
2021/07/04 07:24:18;;;;;;;5.23;3.60;;;;;;;;;;5069523;28;20192;-73
2021/07/04 07:26:43;;;;;;;6.07;3.23;;;;;;;;;;5070739;28;20184;-70
2021/07/04 07:29:08;;;;;;;4.57;3.00;;;;;;;;;;5070109;28;20698;-69
2021/07/04 07:31:36;;;;;;;3.63;1.83;;;;;;;;;;5069550;28;20675;-70
2021/07/04 07:34:02;;;;;;;6.43;3.23;;;;;;;;;;5060898;28;20193;-72
2021/07/04 07:36:28;;;;;;;6.60;3.50;;;;;;;;;;5070720;28;20387;-73
2021/07/04 07:38:53;;;;;;;8.00;3.30;;;;;;;;;;5069449;28;20768;-72
2021/07/04 07:41:18;;;;;;;4.17;2.20;;;;;;;;;;5073866;28;20164;-70
2021/07/04 07:43:46;;;;;;;4.03;2.43;;;;;;;;;;5066122;28;20584;-68
2021/07/04 07:46:11;;;;;;;3.90;2.20;;;;;;;;;;5070948;28;20190;-71
2021/07/04 07:48:36;;;;;;;4.40;2.03;;;;;;;;;;5073856;28;20476;-71
2021/07/04 07:51:02;;;;;;;3.97;2.07;;;;;;;;;;5070890;28;20169;-69
2021/07/04 07:53:27;;;;;;;5.43;2.20;;;;;;;;;;5074250;28;20206;-68
2021/07/04 07:55:53;;;;;;;4.33;2.27;;;;;;;;;;5072632;28;20187;-71
2021/07/04 07:58:18;;;;;;;3.30;1.70;;;;;;;;;;5071893;28;20241;-69
2021/07/04 08:00:43;;;;;;;4.17;1.90;;;;;;;;;;5070497;28;20247;-72
2021/07/04 08:03:11;;;;;;;3.00;1.50;;;;;;;;;;5072418;28;20176;-70
2021/07/04 08:05:37;;;;;;;3.77;1.97;;;;;;;;;;5073901;28;20195;-77
2021/07/04 08:08:02;;;;;;;2.90;1.67;;;;;;;;;;5073856;28;20458;-75
2021/07/04 08:10:27;;;;;;;3.50;1.83;;;;;;;;;;5073152;28;20184;-72
2021/07/04 08:12:55;;;;;;;3.47;1.77;;;;;;;;;;5073005;28;20637;-69
2021/07/04 08:15:20;;;;;;;9.53;2.10;;;;;;;;;;5072957;28;20230;-72
2021/07/04 08:17:45;;;;;;;2.97;1.60;;;;;;;;;;5072986;28;20834;-76
2021/07/04 08:20:11;;;;;;;6.00;2.37;;;;;;;;;;5073300;28;20329;-77
2021/07/04 08:22:36;;;;;;;3.37;1.77;;;;;;;;;;5073416;28;20157;-71
2021/07/04 08:25:02;;;;;;;3.50;1.80;;;;;;;;;;5073173;28;20586;-74
2021/07/04 08:27:28;;;;;;;3.27;1.60;;;;;;;;;;5072820;28;20276;-74
2021/07/04 08:29:53;;;;;;;2.87;1.33;;;;;;;;;;5073554;28;20243;-74
2021/07/04 08:32:18;;;;;;;4.50;1.60;;;;;;;;;;5073648;28;20168;-74
2021/07/04 08:34:45;;;;;;;3.40;1.60;;;;;;;;;;5073272;28;20226;-71
2021/07/04 08:37:10;;;;;;;4.20;1.90;;;;;;;;;;5072083;28;20887;-76
2021/07/04 08:39:36;;;;;;;5.90;1.80;;;;;;;;;;5072405;28;20962;-77
2021/07/04 08:42:01;;;;;;;6.83;1.87;;;;;;;;;;5073264;28;20199;-72
2021/07/04 08:44:28;;;;;;;6.20;1.73;;;;;;;;;;5072715;28;20165;-69
2021/07/04 08:46:53;;;;;;;3.90;2.20;;;;;;;;;;5072516;28;20176;-73
2021/07/04 08:49:18;;;;;;;3.40;1.83;;;;;;;;;;5072545;28;20446;-75
2021/07/04 08:51:44;;;;;;;5.83;1.97;;;;;;;;;;5072548;28;20171;-70
2021/07/04 08:54:09;;;;;;;4.83;1.80;;;;;;;;;;5072911;28;20696;-69
2021/07/04 08:56:35;;;;;;;3.30;1.80;;;;;;;;;;5072928;28;20160;-71
2021/07/04 08:59:00;;;;;;;3.70;1.73;;;;;;;;;;5071689;28;20218;-73
2021/07/04 09:01:26;;;;;;;3.70;1.80;;;;;;;;;;5071967;28;20646;-76
2021/07/04 09:03:53;;;;;;;3.10;1.77;;;;;;;;;;5072727;28;20718;-74
2021/07/04 09:06:55;;;;;;;3.30;2.00;;;;;;;;;;5072660;28;21014;-72
2021/07/04 09:09:22;;;;;;;5.30;2.20;;;;;;;;;;4995402;28;20477;-75
2021/07/04 09:12:01;;;;;;;3.63;1.87;;;;;;;;;;5045395;28;20414;-71
2021/07/04 09:14:28;;;;;;;3.77;2.10;;;;;;;;;;5072298;28;20417;-73
2021/07/04 09:16:54;;;;;;;4.70;1.60;;;;;;;;;;5072215;28;20462;-76
2021/07/04 09:19:19;;;;;;;2.83;1.50;;;;;;;;;;5072262;28;20395;-68
2021/07/04 09:21:53;;;;;;;3.10;1.70;;;;;;;;;;5071473;28;20546;-75
2021/07/04 09:24:23;;;;;;;3.20;1.70;;;;;;;;;;5071630;28;20199;-70
2021/07/04 09:26:48;;;;;;;4.90;1.77;;;;;;;;;;5070579;28;20777;-71
2021/07/04 09:29:14;;;;;;;3.20;1.83;;;;;;;;;;5071869;28;20457;-76
2021/07/04 09:31:40;;;;;;;3.40;1.90;;;;;;;;;;5071861;28;20222;-77
2021/07/04 09:34:10;;;;;;;3.50;2.00;;;;;;;;;;5071816;28;20168;-74
2021/07/04 09:36:36;;;;;;;3.40;1.87;;;;;;;;;;5071568;28;20406;-73
2021/07/04 09:39:14;;;;;;;2.77;1.40;;;;;;;;;;5071023;28;20951;-68
2021/07/04 09:41:39;;;;;;;3.10;1.60;;;;;;;;;;5071212;28;20421;-75
2021/07/04 09:44:21;;;;;;;2.70;1.33;;;;;;;;;;5071698;28;20411;-69
2021/07/04 09:47:07;;;;;;;3.33;1.70;;;;;;;;;;5071847;28;20218;-77
2021/07/04 09:49:32;;;;;;;3.80;1.70;;;;;;;;;;5071445;28;20498;-76
2021/07/04 09:52:17;;;;;;;3.40;1.50;;;;;;;;;;5071624;28;20460;-69
2021/07/04 09:55:03;;;;;;;3.77;2.23;;;;;;;;;;5071540;28;20630;-71
2021/07/04 09:57:48;;;;;;;3.40;1.50;;;;;;;;;;5071550;28;20405;-73
2021/07/04 10:00:17;;;;;;;3.73;1.77;;;;;;;;;;5071538;28;20476;-77
2021/07/04 10:03:02;;;;;;;5.87;1.83;;;;;;;;;;5071372;28;20932;-70
2021/07/04 10:05:28;;;;;;;3.50;1.70;;;;;;;;;;5071036;28;20418;-72
2021/07/04 10:07:53;;;;;;;4.33;2.27;;;;;;;;;;5070664;28;20454;-68
2021/07/04 10:10:18;;;;;;;8.90;2.37;;;;;;;;;;5070885;28;20615;-68
2021/07/04 10:12:44;;;;;;;3.37;2.00;;;;;;;;;;5070714;28;20164;-71
2021/07/04 10:15:09;;;;;;;2.80;1.47;;;;;;;;;;5070660;28;20725;-73
2021/07/04 10:17:35;;;;;;;3.73;1.60;;;;;;;;;;5053169;28;20611;-76
2021/07/04 10:20:01;;;;;;;3.20;1.63;;;;;;;;;;5070808;28;20171;-74
2021/07/04 10:22:30;;;;;;;4.40;1.50;;;;;;;;;;5071096;28;20179;-76
2021/07/04 10:24:56;;;;;;;4.50;1.70;;;;;;;;;;5053045;28;20173;-73
2021/07/04 10:27:21;;;;;;;3.00;1.70;;;;;;;;;;5071069;28;20383;-74
2021/07/04 10:29:49;;;;;;;3.03;1.53;;;;;;;;;;5071077;28;20620;-73
2021/07/04 10:32:14;;;;;;;4.37;1.93;;;;;;;;;;5053038;28;20218;-77
2021/07/04 10:34:44;;;;;;;5.10;1.67;;;;;;;;;;5068294;28;20427;-68
2021/07/04 10:37:10;;;;;;;5.53;1.40;;;;;;;;;;5070797;28;20630;-76
2021/07/04 10:39:35;;;;;;;3.60;1.63;;;;;;;;;;5070787;28;20410;-69
2021/07/04 10:42:02;;;;;;;3.60;1.67;;;;;;;;;;5071053;28;20243;-69
2021/07/04 10:44:39;;;;;;;4.23;1.70;;;;;;;;;;5070654;28;20252;-69
2021/07/04 10:47:06;;;;;;;4.60;1.60;;;;;;;;;;5069584;28;20406;-67
2021/07/04 10:49:39;;;;;;;3.13;1.70;;;;;;;;;;5069680;28;20414;-76
2021/07/04 10:52:22;;;;;;;3.07;1.47;;;;;;;;;;5070411;28;20975;-74
2021/07/04 10:54:50;;;;;;;3.53;1.93;;;;;;;;;;5070299;28;20677;-73
2021/07/04 10:57:28;;;;;;;4.07;1.80;;;;;;;;;;5070149;28;20418;-76
2021/07/04 11:00:00;;;;;;;3.20;1.73;;;;;;;;;;5070149;28;20410;-70
2021/07/04 11:02:37;;;;;;;4.00;1.87;;;;;;;;;;5070366;28;20433;-75
2021/07/04 11:05:10;;;;;;;3.33;1.80;;;;;;;;;;5069718;28;20410;-69
2021/07/04 11:08:05;;;;;;;3.47;1.63;;;;;;;;;;5052013;28;20470;-75
2021/07/04 11:10:35;;;;;;;7.23;1.87;;;;;;;;;;5049242;28;20411;-76
2021/07/04 11:13:07;;;;;;;3.43;1.90;;;;;;;;;;5070275;28;20407;-69
2021/07/04 11:15:32;;;;;;;3.00;1.60;;;;;;;;;;5069898;28;20462;-76
2021/07/04 11:17:58;;;;;;;5.33;2.33;;;;;;;;;;5070226;28;20434;-76
2021/07/04 11:20:25;;;;;;;3.37;2.00;;;;;;;;;;5069604;28;20271;-70
2021/07/04 11:22:56;;;;;;;3.60;1.90;;;;;;;;;;5070169;28;20164;-75
2021/07/04 11:25:22;;;;;;;3.27;1.70;;;;;;;;;;5068677;28;20435;-77
2021/07/04 11:28:07;;;;;;;3.40;1.90;;;;;;;;;;5069673;28;20473;-65
2021/07/04 11:30:33;;;;;;;2.90;1.63;;;;;;;;;;5069484;28;20211;-75
2021/07/04 11:33:17;;;;;;;4.03;1.93;;;;;;;;;;5070453;28;20867;-75
2021/07/04 11:35:42;;;;;;;3.40;1.77;;;;;;;;;;5070056;28;20210;-68
2021/07/04 11:38:13;;;;;;;3.40;2.20;;;;;;;;;;5069975;28;20422;-75
2021/07/04 11:40:42;;;;;;;3.10;1.70;;;;;;;;;;5069980;28;20168;-74
2021/07/04 11:43:14;;;;;;;3.60;2.00;;;;;;;;;;5069845;28;20489;-68
2021/07/04 11:45:46;;;;;;;3.40;1.70;;;;;;;;;;5070073;28;20500;-78
2021/07/04 11:48:11;;;;;;;3.47;2.00;;;;;;;;;;5069833;28;20449;-78
2021/07/04 11:50:50;;;;;;;3.67;1.90;;;;;;;;;;5068966;28;20402;-76
2021/07/04 11:53:16;;;;;;;4.10;2.10;;;;;;;;;;5069231;28;20188;-75
2021/07/04 11:56:01;;;;;;;3.60;2.03;;;;;;;;;;5069583;28;20407;-73
2021/07/04 11:58:28;;;;;;;3.40;1.70;;;;;;;;;;5056517;28;20196;-72
2021/07/04 12:00:53;;;;;;;3.57;2.03;;;;;;;;;;5069476;28;20394;-74
2021/07/04 12:03:22;;;;;;;5.07;2.47;;;;;;;;;;5069567;28;20436;-75
2021/07/04 12:05:48;;;;;;;4.00;2.40;;;;;;;;;;5069464;28;20171;-74
2021/07/04 12:08:14;;;;;;;3.60;2.30;;;;;;;;;;5051202;28;20454;-73
2021/07/04 12:10:47;;;;;;;3.70;2.27;;;;;;;;;;5069564;28;20414;-69
2021/07/04 12:13:13;;;;;;;4.33;2.40;;;;;;;;;;5069371;28;20164;-76
2021/07/04 12:15:38;;;;;;;6.43;2.10;;;;;;;;;;5069296;28;20453;-70
2021/07/04 12:18:10;;;;;;;3.60;2.30;;;;;;;;;;5069238;28;20469;-74
2021/07/04 12:20:37;;;;;;;4.57;2.40;;;;;;;;;;5069851;28;20161;-71
2021/07/04 12:23:05;;;;;;;3.70;2.03;;;;;;;;;;5069464;28;20648;-70
2021/07/04 12:25:38;;;;;;;3.60;2.00;;;;;;;;;;5068840;28;20395;-71
2021/07/04 12:28:03;;;;;;;3.63;2.17;;;;;;;;;;5069155;28;20797;-71
2021/07/04 12:30:30;;;;;;;3.50;2.10;;;;;;;;;;5069145;28;20444;-74
2021/07/04 12:32:58;;;;;;;3.20;1.80;;;;;;;;;;5071625;28;20176;-76
2021/07/04 12:35:42;;;;;;;3.30;2.20;;;;;;;;;;5073189;28;20414;-68
2021/07/04 12:38:13;;;;;;;3.70;2.10;;;;;;;;;;5072300;28;20417;-69
2021/07/04 12:40:55;;;;;;;3.07;1.97;;;;;;;;;;5072986;28;20406;-69
2021/07/04 12:43:31;;;;;;;5.00;2.20;;;;;;;;;;5073114;28;20470;-77
2021/07/04 12:45:57;;;;;;;3.67;2.00;;;;;;;;;;5072042;28;20405;-68
2021/07/04 12:48:23;;;;;;;4.93;2.40;;;;;;;;;;5072485;28;20438;-75
2021/07/04 12:50:49;;;;;;;3.80;2.30;;;;;;;;;;5072565;28;20394;-70
2021/07/04 12:53:15;;;;;;;7.43;2.73;;;;;;;;;;5072937;28;20429;-77
2021/07/04 12:55:40;;;;;;;4.20;2.43;;;;;;;;;;5072453;28;20250;-76
2021/07/04 12:58:38;;;;;;;4.83;2.20;;;;;;;;;;5072857;28;20765;-74
2021/07/04 13:01:11;;;;;;;4.53;2.50;;;;;;;;;;5035002;28;20687;-70
2021/07/04 13:03:40;;;;;;;3.97;2.43;;;;;;;;;;5072844;28;20853;-72
2021/07/04 13:06:06;;;;;;;3.67;2.20;;;;;;;;;;5072409;28;20445;-70
2021/07/04 13:08:32;;;;;;;3.70;2.50;;;;;;;;;;5072443;28;20537;-69
2021/07/04 13:10:57;;;;;;;6.10;2.23;;;;;;;;;;5072359;28;20172;-68
2021/07/04 13:13:24;;;;;;;3.37;2.10;;;;;;;;;;5072420;28;20171;-76
2021/07/04 13:15:49;;;;;;;10.87;3.07;;;;;;;;;;5072872;28;20567;-78
2021/07/04 13:18:29;;;;;;;4.73;2.20;;;;;;;;;;5072480;28;20418;-67
2021/07/04 13:20:55;;;;;;;5.67;2.97;;;;;;;;;;5072486;28;20170;-69
2021/07/04 13:23:21;;;;;;;5.00;2.40;;;;;;;;;;5072356;28;20486;-77
2021/07/04 13:25:53;;;;;;;3.70;2.10;;;;;;;;;;5072129;28;20406;-72
2021/07/04 13:28:20;;;;;;;4.53;2.90;;;;;;;;;;5071990;28;20807;-71
2021/07/04 13:30:48;;;;;;;5.40;2.43;;;;;;;;;;5072312;28;20442;-77
2021/07/04 13:33:14;;;;;;;6.77;2.97;;;;;;;;;;5072231;28;20768;-77
2021/07/04 13:35:42;;;;;;;4.03;2.80;;;;;;;;;;5071984;28;20904;-77
2021/07/04 13:38:08;;;;;;;4.33;2.70;;;;;;;;;;5071882;28;20157;-69
2021/07/04 13:40:35;;;;;;;4.97;2.40;;;;;;;;;;5072196;28;20398;-71
2021/07/04 13:43:01;;;;;;;4.00;2.50;;;;;;;;;;5071883;28;20457;-70
2021/07/04 13:45:28;;;;;;;4.63;2.70;;;;;;;;;;5071010;28;20501;-74
2021/07/04 13:48:01;;;;;;;4.37;2.40;;;;;;;;;;5071843;28;20192;-76
2021/07/04 13:50:27;;;;;;;6.00;2.73;;;;;;;;;;5071513;28;20405;-79
2021/07/04 13:52:52;;;;;;;3.33;2.23;;;;;;;;;;5071632;28;20403;-74
2021/07/04 13:55:17;;;;;;;3.77;2.53;;;;;;;;;;5071744;28;20263;-75
2021/07/04 13:57:44;;;;;;;5.30;2.57;;;;;;;;;;5071789;28;20259;-77
2021/07/04 14:00:10;;;;;;;3.77;2.37;;;;;;;;;;5071522;28;20646;-73
2021/07/04 14:02:36;;;;;;;4.63;2.30;;;;;;;;;;5071373;28;20407;-75
2021/07/04 14:05:02;;;;;;;3.87;2.80;;;;;;;;;;5070922;28;20175;-73
2021/07/04 14:07:27;;;;;;;5.77;2.63;;;;;;;;;;5071068;28;20415;-75
2021/07/04 14:09:52;;;;;;;4.13;2.63;;;;;;;;;;5071232;28;20630;-77
2021/07/04 14:12:18;;;;;;;5.30;2.50;;;;;;;;;;5053615;28;20237;-73
2021/07/04 14:14:43;;;;;;;4.07;2.80;;;;;;;;;;5071229;28;20258;-77
2021/07/04 14:17:08;;;;;;;4.73;3.70;;;;;;;;;;5070999;28;20220;-72
2021/07/04 14:19:35;;;;;;;5.63;3.10;;;;;;;;;;5071592;28;20529;-77
2021/07/04 14:22:02;;;;;;;4.17;2.57;;;;;;;;;;5070959;28;20188;-73
2021/07/04 14:24:28;;;;;;;3.60;2.43;;;;;;;;;;5070401;28;20422;-75
2021/07/04 14:26:53;;;;;;;8.83;3.10;;;;;;;;;;5070437;28;20394;-77
2021/07/04 14:29:18;;;;;;;4.77;2.80;;;;;;;;;;5071293;28;20571;-71
2021/07/04 14:31:44;;;;;;;4.30;2.60;;;;;;;;;;5070750;28;20160;-68
2021/07/04 14:34:09;;;;;;;4.20;2.57;;;;;;;;;;5070706;28;20176;-73
2021/07/04 14:36:36;;;;;;;5.20;2.50;;;;;;;;;;5070885;28;20182;-76
2021/07/04 14:39:04;;;;;;;6.93;3.00;;;;;;;;;;5069908;28;20302;-72
2021/07/04 14:41:29;;;;;;;5.03;2.90;;;;;;;;;;5070715;28;20406;-68
2021/07/04 14:43:55;;;;;;;4.37;2.77;;;;;;;;;;5070721;28;20477;-68